Time;durP1;ratioP1;P1;durP2;ratioP2;P2;SDS_P1;SDS_P2;PMS_P1;PMS_P2;Temp;Humidity;BMP_temperature;BMP_pressure;BME280_temperature;BME280_humidity;BME280_pressure;Samples;Min_cycle;Max_cycle;Signal;HPM_P1;HPM_P2
2022/10/25 00:01:34;;;;;;;64.22;9.00;;;;;;;14.19;95.61;99040.91;5052130;28;20035;-46
2022/10/25 00:04:00;;;;;;;25.23;7.80;;;;;;;14.12;94.91;99042.00;5053384;28;20446;-46
2022/10/25 00:06:26;;;;;;;16.35;6.20;;;;;;;14.11;95.63;99033.28;5053351;28;20032;-46
2022/10/25 00:08:51;;;;;;;47.88;7.78;;;;;;;14.16;96.09;99043.97;5053280;28;20031;-46
2022/10/25 00:11:20;;;;;;;12.63;6.43;;;;;;;14.10;95.40;99036.91;5053176;28;20083;-46
2022/10/25 00:13:55;;;;;;;23.15;6.68;;;;;;;14.07;95.79;99037.38;5053216;28;20048;-45
2022/10/25 00:16:24;;;;;;;11.65;6.78;;;;;;;14.16;96.68;99024.69;5052694;28;20052;-46
2022/10/25 00:18:51;;;;;;;28.58;7.45;;;;;;;14.28;97.07;99032.72;5053055;28;20021;-46
2022/10/25 00:21:17;;;;;;;13.55;6.93;;;;;;;14.35;97.54;99031.66;5053081;28;20079;-46
2022/10/25 00:23:43;;;;;;;15.13;5.97;;;;;;;14.40;97.27;99028.34;5053032;28;20021;-46
2022/10/25 00:26:10;;;;;;;16.15;7.05;;;;;;;14.39;96.69;99024.13;5053191;28;20028;-45
2022/10/25 00:28:37;;;;;;;13.70;8.25;;;;;;;14.26;95.43;99022.38;5052932;28;20102;-46
2022/10/25 00:31:06;;;;;;;16.00;7.20;;;;;;;14.16;95.92;99033.41;5052797;28;20391;-46
2022/10/25 00:33:33;;;;;;;133.10;13.45;;;;;;;14.13;95.65;99030.41;5051408;28;20024;-46
2022/10/25 00:36:08;;;;;;;18.00;7.43;;;;;;;14.26;96.95;99026.84;5052761;28;20441;-46
2022/10/25 00:38:34;;;;;;;17.05;7.00;;;;;;;14.34;97.09;99032.66;5051547;28;20033;-46
2022/10/25 00:41:00;;;;;;;12.48;6.60;;;;;;;14.35;96.94;99025.56;5052644;28;20021;-46
2022/10/25 00:43:42;;;;;;;16.67;6.57;;;;;;;14.24;96.54;99024.44;5052676;28;20139;-46
2022/10/25 00:46:25;;;;;;;18.58;7.25;;;;;;;14.18;96.83;99028.75;5052634;28;20029;-46
2022/10/25 00:48:57;;;;;;;11.82;6.40;;;;;;;14.29;97.51;99021.16;5051388;28;20028;-45
2022/10/25 00:51:29;;;;;;;11.45;7.53;;;;;;;14.12;96.05;99012.94;5051313;28;20033;-46
2022/10/25 00:53:55;;;;;;;14.23;6.80;;;;;;;13.96;96.02;99014.28;5052682;28;20099;-46
2022/10/25 00:56:26;;;;;;;13.75;6.30;;;;;;;13.96;96.81;99016.94;5084675;28;20494;-46
2022/10/25 00:58:57;;;;;;;13.35;7.07;;;;;;;14.09;97.68;99022.13;5052447;28;20036;-46
2022/10/25 01:01:23;;;;;;;11.48;6.20;;;;;;;14.39;99.01;99016.19;5052344;28;20178;-45
2022/10/25 01:03:53;;;;;;;12.52;7.97;;;;;;;14.44;98.26;99007.63;5052190;28;20025;-46
2022/10/25 01:06:33;;;;;;;17.33;7.22;;;;;;;14.31;97.67;99009.34;5052187;28;20025;-46
2022/10/25 01:09:01;;;;;;;15.57;6.35;;;;;;;14.21;97.17;99016.16;5052216;28;20041;-46
2022/10/25 01:11:26;;;;;;;11.98;6.57;;;;;;;14.14;97.38;99018.81;5052075;28;20053;-46
2022/10/25 01:13:53;;;;;;;20.33;8.43;;;;;;;14.13;97.92;99011.94;5051975;28;20402;-46
2022/10/25 01:16:33;;;;;;;17.08;8.90;;;;;;;14.41;99.25;99003.59;5052034;28;20111;-46
2022/10/25 01:19:24;;;;;;;15.38;8.80;;;;;;;14.10;95.74;99001.81;5052048;28;20033;-48
2022/10/25 01:22:13;;;;;;;23.92;8.50;;;;;;;13.85;95.05;99007.06;5051885;28;20127;-48
2022/10/25 01:25:26;;;;;;;33.33;23.85;;;;;;;13.68;95.83;99004.97;5050764;28;20115;-48
2022/10/25 01:28:03;;;;;;;24.08;13.63;;;;;;;13.61;96.78;99004.16;5048705;28;20432;-48
2022/10/25 01:31:05;;;;;;;18.40;8.98;;;;;;;13.78;98.30;99005.28;5049585;28;20036;-48
2022/10/25 01:33:43;;;;;;;19.38;7.57;;;;;;;13.77;97.33;99005.50;5049533;28;20104;-47
2022/10/25 01:36:12;;;;;;;17.20;8.18;;;;;;;13.62;96.70;98992.59;5032766;28;20032;-48
2022/10/25 01:38:49;;;;;;;12.68;7.88;;;;;;;13.47;95.95;98995.53;5049527;28;20112;-48
2022/10/25 01:41:21;;;;;;;15.15;6.88;;;;;;;13.37;96.92;98988.06;5032813;28;20063;-48
2022/10/25 01:44:14;;;;;;;10.68;6.85;;;;;;;13.58;98.27;98992.22;5049355;28;20043;-48
2022/10/25 01:46:49;;;;;;;12.85;7.50;;;;;;;13.82;98.71;98997.75;5049445;28;20526;-48
2022/10/25 01:49:41;;;;;;;18.55;6.97;;;;;;;13.95;98.82;98984.47;5032780;28;20113;-48
2022/10/25 01:52:08;;;;;;;8.45;5.78;;;;;;;13.85;97.46;98980.69;5049424;28;20056;-48
2022/10/25 01:54:33;;;;;;;13.38;6.88;;;;;;;13.74;97.14;98980.38;5032574;28;20029;-48
2022/10/25 01:57:08;;;;;;;13.00;6.57;;;;;;;13.73;97.60;98975.28;5032537;28;20539;-48
2022/10/25 02:00:03;;;;;;;13.07;6.65;;;;;;;13.71;97.34;98974.69;5032639;28;20403;-48
2022/10/25 02:02:44;;;;;;;20.00;7.88;;;;;;;13.54;96.63;98972.56;5044033;28;20051;-48
2022/10/25 02:05:26;;;;;;;13.57;8.30;;;;;;;13.41;96.42;98975.28;5033439;28;20128;-48
2022/10/25 02:08:25;;;;;;;21.38;8.82;;;;;;;13.36;97.25;98978.56;5083761;28;20048;-48
2022/10/25 02:11:26;;;;;;;16.65;7.65;;;;;;;13.36;97.46;98981.19;5083464;28;20524;-49
2022/10/25 02:14:10;;;;;;;14.35;8.23;;;;;;;13.38;97.42;98976.53;5050051;28;20552;-48
2022/10/25 02:16:49;;;;;;;13.27;8.23;;;;;;;13.42;97.97;98965.53;5083677;28;20119;-48
2022/10/25 02:19:20;;;;;;;17.30;9.52;;;;;;;13.38;97.41;98976.53;5050140;28;20021;-48
2022/10/25 02:21:48;;;;;;;20.48;8.75;;;;;;;13.31;97.17;98972.28;5033521;28;20033;-48
2022/10/25 02:24:20;;;;;;;19.77;8.88;;;;;;;13.26;97.44;98965.00;5051345;28;20021;-48
2022/10/25 02:26:49;;;;;;;17.08;8.20;;;;;;;13.26;97.82;98962.38;5050089;28;20118;-48
2022/10/25 02:29:17;;;;;;;16.73;8.93;;;;;;;13.25;97.53;98966.00;5050002;28;20029;-48
2022/10/25 02:31:42;;;;;;;16.83;8.60;;;;;;;13.22;97.86;98968.25;5049929;28;20510;-48
2022/10/25 02:34:08;;;;;;;16.48;9.30;;;;;;;13.21;97.78;98964.81;5051201;28;20029;-48
2022/10/25 02:36:34;;;;;;;15.15;8.77;;;;;;;13.17;97.67;98963.63;5049938;28;20115;-48
2022/10/25 02:39:00;;;;;;;15.95;10.32;;;;;;;13.15;97.61;98965.66;5083959;28;20025;-48
2022/10/25 02:41:25;;;;;;;16.02;9.25;;;;;;;13.14;97.42;98954.31;5053620;28;20399;-48
2022/10/25 02:43:51;;;;;;;16.33;8.50;;;;;;;13.10;97.15;98954.91;5087218;28;20104;-48
2022/10/25 02:46:19;;;;;;;17.08;8.40;;;;;;;13.05;97.39;98949.47;5053502;28;20037;-48
2022/10/25 02:48:45;;;;;;;13.60;8.18;;;;;;;13.07;97.66;98953.50;5037089;28;20391;-48
2022/10/25 02:51:12;;;;;;;16.67;9.05;;;;;;;13.04;97.12;98953.13;5087029;28;20025;-48
2022/10/25 02:53:39;;;;;;;14.80;9.57;;;;;;;13.06;97.66;98953.72;5053385;28;20021;-48
2022/10/25 02:56:07;;;;;;;16.42;8.98;;;;;;;13.22;98.91;98952.44;5053331;28;20029;-48
2022/10/25 02:58:36;;;;;;;13.32;8.20;;;;;;;13.28;98.88;98954.22;5054638;28;20061;-48
2022/10/25 03:01:02;;;;;;;19.80;9.30;;;;;;;13.41;99.21;98948.91;5054571;28;20032;-48
2022/10/25 03:03:28;;;;;;;16.83;9.68;;;;;;;13.42;98.61;98955.81;5086826;28;20669;-48
2022/10/25 03:05:54;;;;;;;15.10;9.73;;;;;;;13.46;98.82;98951.75;5053156;28;20025;-48
2022/10/25 03:08:21;;;;;;;17.55;9.73;;;;;;;13.42;98.03;98950.56;5054449;28;20040;-48
2022/10/25 03:10:47;;;;;;;13.27;10.07;;;;;;;13.27;97.61;98949.97;5086576;28;20032;-48
2022/10/25 03:13:16;;;;;;;16.65;9.27;;;;;;;13.18;97.59;98944.16;5052879;28;20043;-48
2022/10/25 03:15:43;;;;;;;15.80;9.18;;;;;;;13.19;98.39;98948.41;5052986;28;20395;-48
2022/10/25 03:18:10;;;;;;;16.63;9.63;;;;;;;13.22;98.82;98949.78;5054263;28;20507;-48
2022/10/25 03:20:35;;;;;;;21.67;10.02;;;;;;;13.40;99.71;98955.22;5052905;28;20102;-48
2022/10/25 03:23:01;;;;;;;16.85;8.23;;;;;;;13.84;100.00;98953.47;5069483;28;20068;-48
2022/10/25 03:25:27;;;;;;;12.90;8.48;;;;;;;14.08;100.00;98951.06;5036212;28;20534;-48
2022/10/25 03:27:52;;;;;;;11.63;6.97;;;;;;;14.22;100.00;98959.69;5052820;28;20031;-48
2022/10/25 03:30:19;;;;;;;11.93;7.75;;;;;;;14.36;99.81;98956.69;5054057;28;20029;-48
2022/10/25 03:32:44;;;;;;;9.50;6.45;;;;;;;14.53;99.78;98961.44;5053951;28;20033;-48
2022/10/25 03:35:10;;;;;;;13.93;7.82;;;;;;;14.57;98.78;98963.44;5052547;28;20024;-48
2022/10/25 03:37:35;;;;;;;11.55;7.85;;;;;;;14.51;97.59;98959.00;5053980;28;20368;-48
2022/10/25 03:40:01;;;;;;;17.65;8.00;;;;;;;14.64;98.27;98966.00;5052498;28;20090;-48
2022/10/25 03:42:26;;;;;;;13.98;8.05;;;;;;;15.04;99.10;98964.75;5052525;28;20463;-48
2022/10/25 03:44:52;;;;;;;14.05;7.70;;;;;;;15.45;99.22;98961.34;5086067;28;20053;-48
2022/10/25 03:47:18;;;;;;;20.02;8.45;;;;;;;15.55;97.99;98963.44;5053696;28;20025;-48
2022/10/25 03:49:44;;;;;;;14.05;7.07;;;;;;;15.61;97.15;98972.31;5085899;28;20025;-48
2022/10/25 03:52:10;;;;;;;11.80;6.00;;;;;;;15.64;97.03;98970.03;5085034;28;20025;-48
2022/10/25 03:54:35;;;;;;;9.75;5.63;;;;;;;15.52;95.45;98970.00;5085756;28;20018;-48
2022/10/25 03:57:01;;;;;;;9.20;5.63;;;;;;;15.25;93.38;98979.31;5085849;28;20472;-48
2022/10/25 03:59:27;;;;;;;16.02;7.13;;;;;;;15.07;93.64;98988.91;5085855;28;20027;-48
2022/10/25 04:01:53;;;;;;;16.35;6.75;;;;;;;15.11;94.75;98986.59;5052197;28;20060;-48
2022/10/25 04:04:20;;;;;;;15.52;7.32;;;;;;;15.14;94.74;98984.31;5053482;28;20520;-48
2022/10/25 04:06:46;;;;;;;12.75;7.40;;;;;;;15.12;95.00;98983.75;5052078;28;20466;-48
2022/10/25 04:09:11;;;;;;;11.20;4.93;;;;;;;15.04;94.15;98988.53;5052174;28;20049;-48
2022/10/25 04:11:37;;;;;;;9.63;5.40;;;;;;;14.72;91.19;98989.47;5053066;28;20446;-48
2022/10/25 04:14:03;;;;;;;14.52;5.28;;;;;;;14.42;89.60;98989.34;5051898;28;20066;-48
2022/10/25 04:16:29;;;;;;;7.75;4.72;;;;;;;14.18;89.14;98983.06;5051825;28;20027;-48
2022/10/25 04:18:56;;;;;;;11.65;5.70;;;;;;;14.01;90.96;98985.44;5051938;28;20032;-48
2022/10/25 04:21:22;;;;;;;10.55;5.53;;;;;;;14.11;92.81;98984.97;5053114;28;20021;-47
2022/10/25 04:23:51;;;;;;;11.38;5.40;;;;;;;14.20;93.86;98991.56;5085260;28;20029;-48
2022/10/25 04:26:18;;;;;;;13.23;6.32;;;;;;;14.27;94.24;98981.78;5052922;28;20017;-48
2022/10/25 04:28:49;;;;;;;12.75;5.60;;;;;;;14.30;94.33;98978.69;5052908;28;20086;-48
2022/10/25 04:31:15;;;;;;;8.60;5.32;;;;;;;14.31;94.10;98982.94;5052869;28;20560;-48
2022/10/25 04:33:40;;;;;;;9.75;4.80;;;;;;;14.29;94.41;98974.44;5052743;28;20103;-48
2022/10/25 04:36:06;;;;;;;9.90;5.32;;;;;;;14.26;94.32;98971.41;5053075;28;20033;-48
2022/10/25 04:38:31;;;;;;;7.47;5.03;;;;;;;14.22;94.52;98970.25;5052763;28;20029;-48
2022/10/25 04:41:00;;;;;;;13.90;5.57;;;;;;;14.12;94.77;98966.25;5052966;28;20049;-48
2022/10/25 04:43:28;;;;;;;9.57;5.53;;;;;;;13.96;93.96;98969.44;5052915;28;20077;-48
2022/10/25 04:45:54;;;;;;;11.35;6.10;;;;;;;13.67;93.39;98976.94;5084763;28;20083;-48
2022/10/25 04:48:20;;;;;;;13.40;6.57;;;;;;;13.39;93.18;98972.84;5051235;28;20499;-48
2022/10/25 04:50:47;;;;;;;12.45;5.90;;;;;;;13.28;94.75;98973.50;5052486;28;20025;-48
2022/10/25 04:53:12;;;;;;;10.75;6.20;;;;;;;13.23;94.78;98968.03;5051180;28;20559;-48
2022/10/25 04:55:38;;;;;;;12.40;6.93;;;;;;;13.19;95.60;98962.38;5050988;28;20029;-48
2022/10/25 04:58:04;;;;;;;6.95;6.25;;;;;;;13.11;94.72;98967.09;5084619;28;20025;-48
2022/10/25 05:00:30;;;;;;;11.43;5.93;;;;;;;12.98;95.03;98968.75;5084520;28;20021;-48
2022/10/25 05:02:56;;;;;;;11.05;6.00;;;;;;;13.03;95.99;98968.13;5052140;28;20499;-48
2022/10/25 05:05:23;;;;;;;9.13;5.78;;;;;;;13.26;97.18;98961.53;5052263;28;20104;-48
2022/10/25 05:07:49;;;;;;;11.48;6.03;;;;;;;13.33;96.51;98962.34;5084408;28;20086;-48
2022/10/25 05:10:18;;;;;;;12.93;6.80;;;;;;;13.28;96.00;98968.22;5052180;28;20029;-47
2022/10/25 05:12:43;;;;;;;12.77;7.32;;;;;;;13.28;96.25;98965.59;5051887;28;20041;-48
2022/10/25 05:15:09;;;;;;;12.95;8.32;;;;;;;13.34;96.21;98971.84;5050700;28;20029;-48
2022/10/25 05:17:35;;;;;;;9.52;7.82;;;;;;;13.27;93.97;98965.81;5050744;28;20143;-48
2022/10/25 05:20:01;;;;;;;11.32;7.93;;;;;;;13.25;93.13;98967.84;5052000;28;20395;-48
2022/10/25 05:22:28;;;;;;;29.73;9.52;;;;;;;13.21;92.89;98956.91;5052004;28;20071;-48
2022/10/25 05:24:53;;;;;;;476.05;38.80;;;;;;;13.35;94.22;98960.31;5051946;28;20399;-48
2022/10/25 05:27:19;;;;;;;859.85;79.15;;;;;;;13.56;95.54;98956.53;5050529;28;20029;-48
2022/10/25 05:29:46;;;;;;;124.10;16.42;;;;;;;13.67;95.36;98958.50;5051887;28;20037;-47
2022/10/25 05:32:12;;;;;;;64.55;14.40;;;;;;;13.42;93.83;98955.81;5050567;28;20029;-48
2022/10/25 05:34:37;;;;;;;34.28;14.23;;;;;;;13.13;93.20;98954.50;5050379;28;20403;-48
2022/10/25 05:37:03;;;;;;;31.58;14.25;;;;;;;13.02;94.74;98955.16;5051753;28;20104;-48
2022/10/25 05:39:29;;;;;;;58.42;15.15;;;;;;;13.08;95.74;98949.06;5051987;28;20108;-48
2022/10/25 05:41:54;;;;;;;71.90;18.55;;;;;;;13.13;95.99;98952.69;5051696;28;20493;-48
2022/10/25 05:44:20;;;;;;;29.63;12.88;;;;;;;13.22;96.68;98948.00;5051738;28;20029;-48
2022/10/25 05:46:46;;;;;;;79.35;18.02;;;;;;;13.09;94.67;98955.94;5051634;28;20029;-47
2022/10/25 05:49:11;;;;;;;161.88;19.92;;;;;;;12.93;95.29;98958.03;5050296;28;20033;-48
2022/10/25 05:51:37;;;;;;;116.40;19.15;;;;;;;12.85;95.54;98954.84;5050329;28;20052;-47
2022/10/25 05:54:11;;;;;;;51.60;14.52;;;;;;;12.77;96.41;98958.50;5051537;28;20483;-47
2022/10/25 05:56:38;;;;;;;69.47;15.55;;;;;;;12.78;96.80;98952.22;5050162;28;20033;-48
2022/10/25 05:59:10;;;;;;;41.47;14.50;;;;;;;12.82;97.08;98947.34;5050270;28;20032;-47
2022/10/25 06:01:38;;;;;;;29.88;13.65;;;;;;;12.68;96.84;98947.41;5051570;28;20023;-48
2022/10/25 06:04:04;;;;;;;25.15;14.23;;;;;;;12.63;96.61;98941.13;5051547;28;20167;-48
2022/10/25 06:06:30;;;;;;;23.73;13.40;;;;;;;12.67;97.81;98944.97;5051724;28;20017;-47
2022/10/25 06:09:00;;;;;;;22.30;14.57;;;;;;;12.70;97.49;98942.72;5050164;28;20384;-48
2022/10/25 06:11:26;;;;;;;23.35;12.13;;;;;;;12.70;97.46;98945.34;5051158;28;20041;-48
2022/10/25 06:13:52;;;;;;;16.02;10.75;;;;;;;12.84;98.01;98942.66;5050391;28;20045;-48
2022/10/25 06:16:19;;;;;;;12.82;10.50;;;;;;;12.95;98.29;98942.03;5055680;28;20078;-48
2022/10/25 06:18:45;;;;;;;30.45;11.50;;;;;;;13.24;99.52;98938.03;5055620;28;20048;-48
2022/10/25 06:21:19;;;;;;;16.60;10.15;;;;;;;13.70;100.00;98936.16;5054003;28;20487;-48
2022/10/25 06:23:46;;;;;;;26.58;11.35;;;;;;;14.11;100.00;98950.66;5055370;28;20079;-48
2022/10/25 06:26:18;;;;;;;14.05;8.90;;;;;;;14.39;99.78;98943.06;5053923;28;20025;-48
2022/10/25 06:28:44;;;;;;;12.68;7.63;;;;;;;14.74;99.56;98937.22;5055304;28;20028;-48
2022/10/25 06:31:15;;;;;;;29.33;9.38;;;;;;;15.28;99.21;98931.28;5053816;28;20033;-48
2022/10/25 06:33:42;;;;;;;505.40;75.65;;;;;;;15.82;97.78;98939.28;5087346;28;20033;-48
2022/10/25 06:36:15;;;;;;;146.27;29.45;;;;;;;16.23;96.69;98942.84;5055022;28;20035;-46
2022/10/25 06:38:42;;;;;;;403.08;52.67;;;;;;;16.23;93.72;98945.50;5055042;28;20086;-46
2022/10/25 06:41:19;;;;;;;130.63;52.75;;;;;;;16.17;92.72;98950.66;5053757;28;20068;-46
2022/10/25 06:43:45;;;;;;;227.32;58.08;;;;;;;16.61;94.54;98952.97;5054897;28;20584;-46
2022/10/25 06:46:26;;;;;;;201.68;30.17;;;;;;;17.04;93.24;98950.91;5054901;28;20029;-46
2022/10/25 06:48:53;;;;;;;25.50;8.10;;;;;;;17.59;91.40;98950.34;5054935;28;20104;-46
2022/10/25 06:51:20;;;;;;;55.60;11.18;;;;;;;17.88;88.18;98959.06;5054754;28;20033;-46
2022/10/25 06:53:46;;;;;;;11.68;6.60;;;;;;;18.55;87.99;98957.38;5054928;28;20475;-46
2022/10/25 06:56:13;;;;;;;24.77;9.35;;;;;;;18.98;85.00;98955.03;5053424;28;20059;-46
2022/10/25 06:58:39;;;;;;;13.45;6.43;;;;;;;19.10;82.06;98947.72;5054656;28;20025;-46
2022/10/25 07:01:08;;;;;;;10.38;5.65;;;;;;;19.01;78.30;98957.19;5086932;28;20399;-46
2022/10/25 07:03:34;;;;;;;16.15;5.90;;;;;;;18.89;77.34;98955.44;5054838;28;20021;-46
2022/10/25 07:06:05;;;;;;;10.80;6.22;;;;;;;18.38;74.06;98968.06;5054439;28;20521;-46
2022/10/25 07:08:32;;;;;;;11.73;5.65;;;;;;;18.21;77.76;98969.91;5054495;28;20495;-46
2022/10/25 07:10:58;;;;;;;12.82;6.00;;;;;;;18.76;79.71;98969.91;5086368;28;20060;-47
2022/10/25 07:13:24;;;;;;;11.52;5.68;;;;;;;19.39;78.86;98971.44;5053162;28;20060;-46
2022/10/25 07:15:50;;;;;;;19.88;5.97;;;;;;;19.99;78.20;98970.41;5054215;28;20077;-46
2022/10/25 07:18:16;;;;;;;9.80;5.03;;;;;;;20.58;76.78;98961.44;5052965;28;20025;-46
2022/10/25 07:20:47;;;;;;;10.30;4.88;;;;;;;20.93;74.16;98960.03;5052912;28;20119;-46
2022/10/25 07:23:14;;;;;;;11.95;5.22;;;;;;;21.01;73.08;98964.06;5054208;28;20021;-46
2022/10/25 07:25:41;;;;;;;13.52;5.60;;;;;;;20.42;73.83;98963.22;5051454;28;20037;-46
2022/10/25 07:28:06;;;;;;;15.45;5.05;;;;;;;19.84;76.16;98959.63;5086390;28;20503;-46
2022/10/25 07:30:32;;;;;;;11.13;4.35;;;;;;;19.60;79.64;98959.94;5054039;28;20029;-46
2022/10/25 07:32:58;;;;;;;13.52;4.50;;;;;;;19.78;77.20;98968.63;5086575;28;20060;-46
2022/10/25 07:35:24;;;;;;;7.47;3.47;;;;;;;20.11;77.09;98976.34;5053896;28;20020;-46
2022/10/25 07:37:49;;;;;;;9.07;3.17;;;;;;;20.67;76.59;98973.25;5053935;28;20021;-46
2022/10/25 07:40:15;;;;;;;10.60;4.15;;;;;;;21.26;76.67;98966.78;5053897;28;20044;-47
2022/10/25 07:42:41;;;;;;;13.05;5.57;;;;;;;21.74;74.86;98966.63;5052502;28;20071;-46
2022/10/25 07:45:07;;;;;;;6.78;3.85;;;;;;;22.22;75.09;98966.34;5069298;28;20040;-46
2022/10/25 07:47:33;;;;;;;11.27;4.03;;;;;;;22.40;72.81;98971.16;5053769;28;20063;-46
2022/10/25 07:49:59;;;;;;;11.85;4.13;;;;;;;22.65;73.59;98974.81;5053752;28;20431;-46
2022/10/25 07:52:24;;;;;;;11.13;5.10;;;;;;;23.05;72.39;98976.56;5053559;28;20020;-46
2022/10/25 07:54:50;;;;;;;10.93;4.80;;;;;;;23.44;71.46;98969.66;5052267;28;20025;-46
2022/10/25 07:57:16;;;;;;;7.38;4.28;;;;;;;23.50;68.09;98963.19;5053550;28;20102;-46
2022/10/25 07:59:41;;;;;;;6.70;4.32;;;;;;;23.16;66.12;98963.94;5053535;28;20021;-46
2022/10/25 08:02:13;;;;;;;5.32;4.25;;;;;;;22.79;64.60;98965.13;5085786;28;20028;-46
2022/10/25 08:04:39;;;;;;;6.82;4.68;;;;;;;22.57;64.67;98957.44;5053450;28;20408;-46
2022/10/25 08:07:04;;;;;;;9.18;5.07;;;;;;;21.76;66.30;98955.69;5052110;28;20029;-46
2022/10/25 08:09:30;;;;;;;7.93;5.45;;;;;;;21.31;66.00;98958.81;5053202;28;20021;-46
2022/10/25 08:11:55;;;;;;;6.50;4.85;;;;;;;21.67;70.18;98971.41;5053080;28;20124;-47
2022/10/25 08:14:21;;;;;;;7.25;4.38;;;;;;;22.43;65.69;98959.91;5052131;28;20490;-46
2022/10/25 08:16:47;;;;;;;11.73;4.72;;;;;;;22.80;65.03;98965.94;5051875;28;20498;-46
2022/10/25 08:19:12;;;;;;;11.43;5.35;;;;;;;23.08;64.70;98968.00;5053196;28;20368;-46
2022/10/25 08:21:38;;;;;;;9.35;4.35;;;;;;;23.37;64.78;98964.63;5053094;28;20032;-47
2022/10/25 08:24:04;;;;;;;6.13;4.50;;;;;;;23.66;65.32;98964.69;5051738;28;20036;-47
2022/10/25 08:26:30;;;;;;;7.68;5.03;;;;;;;23.95;65.27;98963.94;5052987;28;20032;-46
2022/10/25 08:28:55;;;;;;;9.50;4.78;;;;;;;23.66;65.45;98962.00;5052969;28;20029;-47
2022/10/25 08:31:21;;;;;;;4.80;4.30;;;;;;;23.63;64.28;98959.88;5052892;28;20028;-47
2022/10/25 08:33:47;;;;;;;9.65;4.85;;;;;;;23.97;64.76;98961.00;5052838;28;20032;-47
2022/10/25 08:36:13;;;;;;;6.55;3.83;;;;;;;24.59;60.81;98958.50;5085067;28;20114;-47
2022/10/25 08:38:38;;;;;;;11.25;4.50;;;;;;;24.87;58.95;98959.50;5052382;28;20509;-47
2022/10/25 08:41:08;;;;;;;8.73;5.68;;;;;;;25.23;58.95;98959.88;5053043;28;20021;-47
2022/10/25 08:44:07;;;;;;;6.38;3.92;;;;;;;25.35;57.36;98962.09;5053072;28;20410;-47
2022/10/25 08:46:54;;;;;;;9.80;4.40;;;;;;;25.33;57.90;98958.91;5052691;28;20394;-47
2022/10/25 08:49:36;;;;;;;5.88;3.72;;;;;;;25.54;59.59;98964.81;5084842;28;20025;-46
2022/10/25 08:52:11;;;;;;;14.68;4.50;;;;;;;25.62;60.50;98961.44;5084899;28;20033;-46
2022/10/25 08:54:42;;;;;;;17.83;3.88;;;;;;;25.61;61.25;98964.41;5084699;28;20021;-46
2022/10/25 08:57:20;;;;;;;63.35;6.97;;;;;;;26.36;60.52;98968.00;5052488;28;20041;-46
2022/10/25 08:59:51;;;;;;;11.57;3.78;;;;;;;26.96;58.58;98970.63;5052438;28;20556;-47
2022/10/25 09:02:31;;;;;;;16.52;3.70;;;;;;;27.15;60.82;98967.03;5052331;28;20040;-46
2022/10/25 09:04:57;;;;;;;35.92;5.57;;;;;;;27.86;61.35;98970.75;5084443;28;20021;-46
2022/10/25 09:08:02;;;;;;;28.70;5.15;;;;;;;28.73;58.60;98969.63;5052192;28;20032;-47
2022/10/25 09:10:52;;;;;;;6.03;3.78;;;;;;;29.37;56.71;98966.41;5052386;28;20480;-46
2022/10/25 09:13:28;;;;;;;7.75;3.45;;;;;;;29.84;54.80;98964.63;5052203;28;20115;-46
2022/10/25 09:16:04;;;;;;;6.70;3.78;;;;;;;30.12;52.15;98950.69;5084268;28;20044;-47
2022/10/25 09:18:54;;;;;;;9.75;3.90;;;;;;;30.23;52.25;98949.22;5050841;28;20045;-47
2022/10/25 09:21:42;;;;;;;14.23;4.00;;;;;;;30.36;53.62;98961.00;5050729;28;20111;-47
2022/10/25 09:24:23;;;;;;;20.77;4.25;;;;;;;30.79;52.92;98962.69;5052059;28;20146;-47
2022/10/25 09:27:14;;;;;;;8.77;4.60;;;;;;;30.94;51.82;98949.72;5052317;28;20031;-47
2022/10/25 09:29:57;;;;;;;15.48;3.75;;;;;;;30.89;51.37;98955.31;5050648;28;20039;-46
2022/10/25 09:32:31;;;;;;;9.00;3.35;;;;;;;30.65;50.29;98948.59;5084097;28;20403;-46
2022/10/25 09:35:00;;;;;;;5.50;3.10;;;;;;;30.34;52.15;98948.91;5051889;28;20029;-46
2022/10/25 09:37:44;;;;;;;7.57;3.22;;;;;;;29.55;46.09;98946.34;5051810;28;20024;-46
2022/10/25 09:40:30;;;;;;;6.82;3.38;;;;;;;28.71;45.38;98934.81;5050567;28;20032;-46
2022/10/25 09:43:01;;;;;;;6.97;2.65;;;;;;;28.33;53.35;98937.22;5084045;28;20039;-46
2022/10/25 09:45:41;;;;;;;7.65;2.78;;;;;;;28.52;51.11;98935.09;5051829;28;20082;-47
2022/10/25 09:48:22;;;;;;;10.75;3.33;;;;;;;28.24;49.38;98934.47;5083911;28;20052;-46
2022/10/25 09:51:18;;;;;;;7.80;3.08;;;;;;;28.27;51.02;98936.53;5051438;28;20432;-46
2022/10/25 09:53:46;;;;;;;5.85;2.65;;;;;;;28.45;52.86;98932.81;5051624;28;20037;-46
2022/10/25 09:56:11;;;;;;;9.40;3.40;;;;;;;28.19;53.78;98921.13;5051907;28;20112;-47
2022/10/25 09:58:40;;;;;;;8.40;4.07;;;;;;;27.27;57.17;98913.41;5051571;28;20462;-46
2022/10/25 10:01:14;;;;;;;6.10;3.20;;;;;;;27.05;58.21;98919.53;5051768;28;20055;-46
2022/10/25 10:03:40;;;;;;;8.32;2.78;;;;;;;26.83;59.25;98920.28;5051637;28;20401;-46
2022/10/25 10:06:20;;;;;;;3.97;2.20;;;;;;;26.89;51.36;98922.56;5083744;28;20110;-47
2022/10/25 10:08:58;;;;;;;6.47;2.40;;;;;;;26.94;49.52;98926.25;5083854;28;20033;-46
2022/10/25 10:11:24;;;;;;;4.40;2.00;;;;;;;26.52;53.37;98928.94;5049906;28;20095;-46
2022/10/25 10:13:56;;;;;;;4.18;2.08;;;;;;;26.26;54.91;98925.97;5050147;28;20387;-46
2022/10/25 10:16:35;;;;;;;8.93;2.13;;;;;;;26.38;57.24;98925.47;5051406;28;20078;-46
2022/10/25 10:19:22;;;;;;;3.40;1.77;;;;;;;26.41;55.28;98924.88;5051376;28;20063;-46
2022/10/25 10:21:49;;;;;;;3.92;1.70;;;;;;;26.30;59.04;98925.06;5033720;28;20407;-46
2022/10/25 10:24:23;;;;;;;5.43;2.20;;;;;;;26.07;55.74;98915.28;5051357;28;20021;-46
2022/10/25 10:26:56;;;;;;;4.15;1.80;;;;;;;26.18;58.45;98910.50;5050090;28;20648;-46
2022/10/25 10:29:36;;;;;;;4.47;1.77;;;;;;;26.22;55.94;98908.81;5051307;28;20022;-47
2022/10/25 10:32:05;;;;;;;4.57;1.70;;;;;;;26.17;56.50;98911.59;5051272;28;20082;-46
2022/10/25 10:34:43;;;;;;;5.70;2.20;;;;;;;26.00;56.52;98909.50;5049837;28;20112;-46
2022/10/25 10:37:20;;;;;;;4.72;1.80;;;;;;;26.15;54.50;98911.91;5049976;28;20418;-46
2022/10/25 10:39:49;;;;;;;3.90;1.55;;;;;;;26.10;54.75;98909.31;5051278;28;20035;-46
2022/10/25 10:42:20;;;;;;;4.40;2.00;;;;;;;25.86;55.08;98906.75;5083346;28;20033;-46
2022/10/25 10:45:10;;;;;;;6.28;1.80;;;;;;;25.72;53.35;98912.09;5051186;28;20035;-46
2022/10/25 10:47:36;;;;;;;4.28;1.80;;;;;;;25.87;56.54;98908.34;5051506;28;20114;-47
2022/10/25 10:50:30;;;;;;;5.85;1.58;;;;;;;26.23;55.43;98905.03;5051063;28;20057;-46
2022/10/25 10:53:05;;;;;;;6.90;2.00;;;;;;;26.68;58.85;98894.47;5051060;28;20032;-47
2022/10/25 10:55:52;;;;;;;4.18;1.60;;;;;;;27.89;55.63;98888.47;5050958;28;20117;-46
2022/10/25 10:58:28;;;;;;;2.80;1.27;;;;;;;28.55;50.70;98885.84;5083331;28;20184;-47
2022/10/25 11:01:07;;;;;;;5.63;1.60;;;;;;;28.50;51.14;98891.41;5052934;28;20132;-46
2022/10/25 11:03:43;;;;;;;3.80;1.60;;;;;;;28.26;52.23;98883.69;5053351;28;20068;-47
2022/10/25 11:06:17;;;;;;;3.33;1.50;;;;;;;28.17;53.67;98888.25;5054565;28;20021;-47
2022/10/25 11:08:45;;;;;;;1.92;1.27;;;;;;;28.15;54.88;98872.38;5054780;28;20376;-46
2022/10/25 11:11:21;;;;;;;5.63;1.38;;;;;;;28.16;53.53;98868.56;5086362;28;20029;-47
2022/10/25 11:13:54;;;;;;;2.85;1.20;;;;;;;28.20;52.93;98866.03;5086602;28;20442;-46
2022/10/25 11:16:47;;;;;;;8.20;1.58;;;;;;;28.26;47.90;98864.78;5054572;28;20036;-47
2022/10/25 11:19:42;;;;;;;3.35;1.60;;;;;;;27.77;46.44;98864.72;5054287;28;20086;-46
2022/10/25 11:22:45;;;;;;;;;;;;;;;27.37;47.00;98863.88;5054735;28;20044;-47
2022/10/25 11:25:20;;;;;;;5.57;1.60;;;;;;;26.66;49.36;98864.34;5051799;28;19915;-46
2022/10/25 11:28:15;;;;;;;2.55;1.33;;;;;;;26.02;44.94;98861.59;5051936;28;20151;-47
2022/10/25 11:31:08;;;;;;;3.53;1.40;;;;;;;25.04;47.01;98863.16;5035195;28;20585;-46
2022/10/25 11:33:34;;;;;;;5.55;1.48;;;;;;;24.35;55.02;98862.72;5035135;28;20599;-46
2022/10/25 11:36:17;;;;;;;9.70;2.00;;;;;;;24.43;57.35;98862.06;5051657;28;20045;-46
2022/10/25 11:39:07;;;;;;;5.15;1.75;;;;;;;24.99;54.90;98852.50;5051790;28;20029;-46
2022/10/25 11:41:49;;;;;;;3.45;1.30;;;;;;;25.04;51.09;98852.41;5034998;28;20033;-46
2022/10/25 11:44:37;;;;;;;5.57;1.90;;;;;;;24.99;57.51;98852.50;5034966;28;20407;-46
2022/10/25 11:47:53;;;;;;;29.98;4.25;;;;;;;24.89;51.46;98853.44;5040984;28;20542;-46